KCKN/CKN METAR and TAF weather

Enter ICAO airport designator
Station Type Date Time Source
KCKN METAR 2018/10/19 15:15 UTC NOAA

KCKN 191515Z AUTO 33011KT 10SM CLR 11/03 A2985 RMK AO2


Station Type Date Time Source
KCKN Decoded METAR 2018/10/19 15:15 UTC NOAA

Crookston Municipal Field, MN, United States (KCKN) 47-51N 096-37W
Oct 19, 2018 - 11:15 AM EDT / 2018.10.19 1515 UTC
Wind: from the NNW (330 degrees) at 13 MPH (11 KT):0
Visibility: 10 mile(s):0
Sky conditions: clear
Temperature: 51 F (11 C)
Dew Point: 37 F (3 C)
Relative Humidity: 57%
Pressure (altimeter): 29.85 in. Hg (1010 hPa)
ob: KCKN 191515Z AUTO 33011KT 10SM CLR 11/03 A2985 RMK AO2
cycle: 15

Station Type Date Time Source
KCKN TAF UTC NOAA

Error!


Example: see airport list